sensor_id;sensor_type;location;lat;lon;timestamp;temperature;humidity
9118;DHT22;4594;50.994;7.126;2023-06-10T00:01:46;23.10;35.10
9118;DHT22;4594;50.994;7.126;2023-06-10T00:04:15;23.10;35.10
9118;DHT22;4594;50.994;7.126;2023-06-10T00:06:43;23.10;35.10
9118;DHT22;4594;50.994;7.126;2023-06-10T00:09:09;23.00;35.10
9118;DHT22;4594;50.994;7.126;2023-06-10T00:11:36;23.00;35.10
9118;DHT22;4594;50.994;7.126;2023-06-10T00:14:03;23.00;35.10
9118;DHT22;4594;50.994;7.126;2023-06-10T00:16:29;23.00;35.10
9118;DHT22;4594;50.994;7.126;2023-06-10T00:18:54;22.90;35.40
9118;DHT22;4594;50.994;7.126;2023-06-10T00:21:21;22.80;35.00
9118;DHT22;4594;50.994;7.126;2023-06-10T00:23:47;22.90;35.10
9118;DHT22;4594;50.994;7.126;2023-06-10T00:26:13;22.90;35.10
9118;DHT22;4594;50.994;7.126;2023-06-10T00:28:39;22.90;35.10
9118;DHT22;4594;50.994;7.126;2023-06-10T00:31:05;22.80;35.10
9118;DHT22;4594;50.994;7.126;2023-06-10T00:33:31;22.80;35.10
9118;DHT22;4594;50.994;7.126;2023-06-10T00:35:56;22.80;35.10
9118;DHT22;4594;50.994;7.126;2023-06-10T00:38:22;22.80;35.10
9118;DHT22;4594;50.994;7.126;2023-06-10T00:40:48;22.70;35.10
9118;DHT22;4594;50.994;7.126;2023-06-10T00:43:14;22.70;35.10
9118;DHT22;4594;50.994;7.126;2023-06-10T00:45:40;22.70;35.10
9118;DHT22;4594;50.994;7.126;2023-06-10T00:48:06;22.70;35.10
9118;DHT22;4594;50.994;7.126;2023-06-10T00:50:32;22.70;35.20
9118;DHT22;4594;50.994;7.126;2023-06-10T00:52:58;22.70;35.20
9118;DHT22;4594;50.994;7.126;2023-06-10T00:55:25;22.60;35.10
9118;DHT22;4594;50.994;7.126;2023-06-10T00:57:53;22.60;35.10
9118;DHT22;4594;50.994;7.126;2023-06-10T01:04:00;22.60;35.10
9118;DHT22;4594;50.994;7.126;2023-06-10T01:06:41;22.60;35.10
9118;DHT22;4594;50.994;7.126;2023-06-10T01:09:32;22.70;35.20
9118;DHT22;4594;50.994;7.126;2023-06-10T01:12:31;22.50;35.10
9118;DHT22;4594;50.994;7.126;2023-06-10T01:15:01;22.50;35.10
9118;DHT22;4594;50.994;7.126;2023-06-10T01:17:28;22.50;35.20
9118;DHT22;4594;50.994;7.126;2023-06-10T01:19:57;22.50;35.20
9118;DHT22;4594;50.994;7.126;2023-06-10T01:22:24;22.30;35.10
9118;DHT22;4594;50.994;7.126;2023-06-10T01:24:58;22.40;35.20
9118;DHT22;4594;50.994;7.126;2023-06-10T01:27:29;22.40;35.20
9118;DHT22;4594;50.994;7.126;2023-06-10T01:30:10;22.30;35.10
9118;DHT22;4594;50.994;7.126;2023-06-10T01:32:45;22.30;35.10
9118;DHT22;4594;50.994;7.126;2023-06-10T01:35:12;22.30;35.10
9118;DHT22;4594;50.994;7.126;2023-06-10T01:37:39;22.40;35.20
9118;DHT22;4594;50.994;7.126;2023-06-10T01:40:08;22.30;35.20
9118;DHT22;4594;50.994;7.126;2023-06-10T01:42:34;22.30;35.20
9118;DHT22;4594;50.994;7.126;2023-06-10T01:45:01;22.30;35.20
9118;DHT22;4594;50.994;7.126;2023-06-10T01:47:26;22.30;35.20
9118;DHT22;4594;50.994;7.126;2023-06-10T01:49:52;22.30;35.20
9118;DHT22;4594;50.994;7.126;2023-06-10T01:52:18;22.20;35.10
9118;DHT22;4594;50.994;7.126;2023-06-10T01:54:43;22.30;35.20
9118;DHT22;4594;50.994;7.126;2023-06-10T01:57:10;22.20;35.10
9118;DHT22;4594;50.994;7.126;2023-06-10T01:59:35;22.10;35.10
9118;DHT22;4594;50.994;7.126;2023-06-10T02:02:03;22.10;35.10
9118;DHT22;4594;50.994;7.126;2023-06-10T02:04:30;22.20;35.10
9118;DHT22;4594;50.994;7.126;2023-06-10T02:06:56;22.20;35.10
9118;DHT22;4594;50.994;7.126;2023-06-10T02:09:22;22.10;35.00
9118;DHT22;4594;50.994;7.126;2023-06-10T02:11:48;22.20;35.20
9118;DHT22;4594;50.994;7.126;2023-06-10T02:14:14;22.20;35.10
9118;DHT22;4594;50.994;7.126;2023-06-10T02:16:40;22.10;35.10
9118;DHT22;4594;50.994;7.126;2023-06-10T02:19:06;22.10;35.00
9118;DHT22;4594;50.994;7.126;2023-06-10T02:21:32;22.10;35.10
9118;DHT22;4594;50.994;7.126;2023-06-10T02:24:00;22.10;35.10
9118;DHT22;4594;50.994;7.126;2023-06-10T02:26:26;22.10;35.10
9118;DHT22;4594;50.994;7.126;2023-06-10T02:28:52;22.10;35.10
9118;DHT22;4594;50.994;7.126;2023-06-10T02:31:18;22.00;35.00
9118;DHT22;4594;50.994;7.126;2023-06-10T02:33:44;22.00;35.00
9118;DHT22;4594;50.994;7.126;2023-06-10T02:36:10;22.00;35.00
9118;DHT22;4594;50.994;7.126;2023-06-10T02:38:41;22.00;35.00
9118;DHT22;4594;50.994;7.126;2023-06-10T02:41:07;21.90;35.00
9118;DHT22;4594;50.994;7.126;2023-06-10T02:43:32;21.90;35.00
9118;DHT22;4594;50.994;7.126;2023-06-10T02:45:58;21.90;35.00
9118;DHT22;4594;50.994;7.126;2023-06-10T02:48:24;21.90;35.00
9118;DHT22;4594;50.994;7.126;2023-06-10T02:50:50;21.90;35.00
9118;DHT22;4594;50.994;7.126;2023-06-10T02:53:16;21.80;34.90
9118;DHT22;4594;50.994;7.126;2023-06-10T02:55:42;21.90;35.00
9118;DHT22;4594;50.994;7.126;2023-06-10T02:58:08;21.80;34.90
9118;DHT22;4594;50.994;7.126;2023-06-10T03:00:34;21.80;34.90
9118;DHT22;4594;50.994;7.126;2023-06-10T03:03:01;21.80;34.90
9118;DHT22;4594;50.994;7.126;2023-06-10T03:05:29;21.80;34.90
9118;DHT22;4594;50.994;7.126;2023-06-10T03:07:55;21.70;34.80
9118;DHT22;4594;50.994;7.126;2023-06-10T03:10:20;21.70;34.80
9118;DHT22;4594;50.994;7.126;2023-06-10T03:12:46;21.80;34.90
9118;DHT22;4594;50.994;7.126;2023-06-10T03:15:12;21.70;34.80
9118;DHT22;4594;50.994;7.126;2023-06-10T03:17:38;21.70;34.80
9118;DHT22;4594;50.994;7.126;2023-06-10T03:20:04;21.60;34.70
9118;DHT22;4594;50.994;7.126;2023-06-10T03:22:35;21.60;34.70
9118;DHT22;4594;50.994;7.126;2023-06-10T03:25:03;21.60;34.70
9118;DHT22;4594;50.994;7.126;2023-06-10T03:27:30;21.60;34.70
9118;DHT22;4594;50.994;7.126;2023-06-10T03:29:56;21.60;34.70
9118;DHT22;4594;50.994;7.126;2023-06-10T03:32:22;21.60;34.70
9118;DHT22;4594;50.994;7.126;2023-06-10T03:34:47;21.60;34.70
9118;DHT22;4594;50.994;7.126;2023-06-10T03:37:14;21.60;34.70
9118;DHT22;4594;50.994;7.126;2023-06-10T03:39:39;21.50;34.70
9118;DHT22;4594;50.994;7.126;2023-06-10T03:42:06;21.50;34.70
9118;DHT22;4594;50.994;7.126;2023-06-10T03:44:31;21.40;34.60
9118;DHT22;4594;50.994;7.126;2023-06-10T03:46:57;21.40;34.60
9118;DHT22;4594;50.994;7.126;2023-06-10T03:49:23;21.40;34.60
9118;DHT22;4594;50.994;7.126;2023-06-10T03:51:51;21.30;34.90
9118;DHT22;4594;50.994;7.126;2023-06-10T03:54:16;21.40;34.70
9118;DHT22;4594;50.994;7.126;2023-06-10T03:56:42;21.30;34.60
9118;DHT22;4594;50.994;7.126;2023-06-10T03:59:08;21.30;34.60
9118;DHT22;4594;50.994;7.126;2023-06-10T04:01:33;21.20;34.60
9118;DHT22;4594;50.994;7.126;2023-06-10T04:04:00;21.20;34.60
9118;DHT22;4594;50.994;7.126;2023-06-10T04:06:26;21.20;34.70
9118;DHT22;4594;50.994;7.126;2023-06-10T04:08:54;21.20;34.70
9118;DHT22;4594;50.994;7.126;2023-06-10T04:11:23;21.10;34.70
9118;DHT22;4594;50.994;7.126;2023-06-10T04:13:49;21.10;34.80
9118;DHT22;4594;50.994;7.126;2023-06-10T04:16:15;21.10;34.90
9118;DHT22;4594;50.994;7.126;2023-06-10T04:18:41;20.90;34.80
9118;DHT22;4594;50.994;7.126;2023-06-10T04:21:09;21.00;35.00
9118;DHT22;4594;50.994;7.126;2023-06-10T04:23:35;21.00;35.10
9118;DHT22;4594;50.994;7.126;2023-06-10T04:26:02;21.00;35.10
9118;DHT22;4594;50.994;7.126;2023-06-10T04:28:28;20.90;35.10
9118;DHT22;4594;50.994;7.126;2023-06-10T04:30:54;20.90;35.00
9118;DHT22;4594;50.994;7.126;2023-06-10T04:33:19;20.90;35.00
9118;DHT22;4594;50.994;7.126;2023-06-10T04:35:45;20.90;35.00
9118;DHT22;4594;50.994;7.126;2023-06-10T04:38:13;20.90;35.00
9118;DHT22;4594;50.994;7.126;2023-06-10T04:40:39;20.90;35.00
9118;DHT22;4594;50.994;7.126;2023-06-10T04:43:05;20.90;34.90
9118;DHT22;4594;50.994;7.126;2023-06-10T04:45:31;21.00;35.00
9118;DHT22;4594;50.994;7.126;2023-06-10T04:47:56;21.10;35.30
9118;DHT22;4594;50.994;7.126;2023-06-10T04:50:23;21.20;35.60
9118;DHT22;4594;50.994;7.126;2023-06-10T04:52:49;21.30;35.60
9118;DHT22;4594;50.994;7.126;2023-06-10T04:55:15;21.50;35.70
9118;DHT22;4594;50.994;7.126;2023-06-10T04:57:41;21.60;35.80
9118;DHT22;4594;50.994;7.126;2023-06-10T05:00:07;22.20;36.30
9118;DHT22;4594;50.994;7.126;2023-06-10T05:02:34;21.90;36.00
9118;DHT22;4594;50.994;7.126;2023-06-10T05:04:59;22.00;36.10
9118;DHT22;4594;50.994;7.126;2023-06-10T05:07:25;22.30;36.50
9118;DHT22;4594;50.994;7.126;2023-06-10T05:09:51;22.50;36.60
9118;DHT22;4594;50.994;7.126;2023-06-10T05:12:17;22.70;36.80
9118;DHT22;4594;50.994;7.126;2023-06-10T05:14:42;23.10;37.10
9118;DHT22;4594;50.994;7.126;2023-06-10T05:17:10;23.50;37.20
9118;DHT22;4594;50.994;7.126;2023-06-10T05:19:35;23.80;37.40
9118;DHT22;4594;50.994;7.126;2023-06-10T05:22:02;24.20;37.60
9118;DHT22;4594;50.994;7.126;2023-06-10T05:24:28;24.60;37.70
9118;DHT22;4594;50.994;7.126;2023-06-10T05:26:54;24.90;37.70
9118;DHT22;4594;50.994;7.126;2023-06-10T05:29:20;25.40;37.80
9118;DHT22;4594;50.994;7.126;2023-06-10T05:31:45;25.70;37.80
9118;DHT22;4594;50.994;7.126;2023-06-10T05:34:11;26.00;37.90
9118;DHT22;4594;50.994;7.126;2023-06-10T05:36:37;26.40;37.90
9118;DHT22;4594;50.994;7.126;2023-06-10T05:39:03;26.80;38.00
9118;DHT22;4594;50.994;7.126;2023-06-10T05:41:28;27.20;37.90
9118;DHT22;4594;50.994;7.126;2023-06-10T05:43:54;27.50;37.80
9118;DHT22;4594;50.994;7.126;2023-06-10T05:46:20;28.00;37.80
9118;DHT22;4594;50.994;7.126;2023-06-10T05:48:47;28.30;37.70
9118;DHT22;4594;50.994;7.126;2023-06-10T05:51:12;28.70;37.60
9118;DHT22;4594;50.994;7.126;2023-06-10T05:53:38;29.10;37.60
9118;DHT22;4594;50.994;7.126;2023-06-10T05:56:04;29.50;37.60
9118;DHT22;4594;50.994;7.126;2023-06-10T05:58:30;29.90;37.50
9118;DHT22;4594;50.994;7.126;2023-06-10T06:00:55;30.30;37.50
9118;DHT22;4594;50.994;7.126;2023-06-10T06:03:21;30.70;37.40
9118;DHT22;4594;50.994;7.126;2023-06-10T06:05:47;31.10;37.20
9118;DHT22;4594;50.994;7.126;2023-06-10T06:08:13;31.50;37.10
9118;DHT22;4594;50.994;7.126;2023-06-10T06:10:44;31.90;37.00
9118;DHT22;4594;50.994;7.126;2023-06-10T06:13:11;32.30;37.20
9118;DHT22;4594;50.994;7.126;2023-06-10T06:15:36;32.70;36.80
9118;DHT22;4594;50.994;7.126;2023-06-10T06:18:02;33.10;36.70
9118;DHT22;4594;50.994;7.126;2023-06-10T06:20:28;33.40;36.50
9118;DHT22;4594;50.994;7.126;2023-06-10T06:22:54;33.70;36.30
9118;DHT22;4594;50.994;7.126;2023-06-10T06:25:20;34.00;36.20
9118;DHT22;4594;50.994;7.126;2023-06-10T06:27:45;34.30;36.00
9118;DHT22;4594;50.994;7.126;2023-06-10T06:30:11;34.50;35.90
9118;DHT22;4594;50.994;7.126;2023-06-10T06:32:37;34.80;35.80
9118;DHT22;4594;50.994;7.126;2023-06-10T06:35:03;35.00;35.70
9118;DHT22;4594;50.994;7.126;2023-06-10T06:37:31;35.20;35.60
9118;DHT22;4594;50.994;7.126;2023-06-10T06:39:57;35.40;35.50
9118;DHT22;4594;50.994;7.126;2023-06-10T06:42:23;35.60;35.30
9118;DHT22;4594;50.994;7.126;2023-06-10T06:44:49;35.90;35.30
9118;DHT22;4594;50.994;7.126;2023-06-10T06:47:15;36.10;35.20
9118;DHT22;4594;50.994;7.126;2023-06-10T06:49:44;36.30;35.00
9118;DHT22;4594;50.994;7.126;2023-06-10T06:52:09;36.50;34.90
9118;DHT22;4594;50.994;7.126;2023-06-10T06:54:35;36.70;34.90
9118;DHT22;4594;50.994;7.126;2023-06-10T06:57:01;36.90;34.80
9118;DHT22;4594;50.994;7.126;2023-06-10T06:59:27;37.10;34.60
9118;DHT22;4594;50.994;7.126;2023-06-10T07:01:53;37.40;34.70
9118;DHT22;4594;50.994;7.126;2023-06-10T07:04:21;37.60;34.60
9118;DHT22;4594;50.994;7.126;2023-06-10T07:06:48;37.80;34.40
9118;DHT22;4594;50.994;7.126;2023-06-10T07:09:14;38.10;34.10
9118;DHT22;4594;50.994;7.126;2023-06-10T07:11:39;38.20;33.90
9118;DHT22;4594;50.994;7.126;2023-06-10T07:14:06;38.40;33.70
9118;DHT22;4594;50.994;7.126;2023-06-10T07:16:32;38.70;33.60
9118;DHT22;4594;50.994;7.126;2023-06-10T07:18:58;38.80;33.50
9118;DHT22;4594;50.994;7.126;2023-06-10T07:21:24;39.10;33.60
9118;DHT22;4594;50.994;7.126;2023-06-10T07:23:50;39.20;33.40
9118;DHT22;4594;50.994;7.126;2023-06-10T07:26:19;39.40;32.90
9118;DHT22;4594;50.994;7.126;2023-06-10T07:28:45;39.60;32.90
9118;DHT22;4594;50.994;7.126;2023-06-10T07:31:10;39.70;32.60
9118;DHT22;4594;50.994;7.126;2023-06-10T07:33:37;39.80;32.60
9118;DHT22;4594;50.994;7.126;2023-06-10T07:36:05;39.90;32.50
9118;DHT22;4594;50.994;7.126;2023-06-10T07:38:31;40.10;32.50
9118;DHT22;4594;50.994;7.126;2023-06-10T07:40:57;40.20;32.50
9118;DHT22;4594;50.994;7.126;2023-06-10T07:43:24;40.40;32.20
9118;DHT22;4594;50.994;7.126;2023-06-10T07:45:50;40.60;32.20
9118;DHT22;4594;50.994;7.126;2023-06-10T07:48:16;40.70;32.20
9118;DHT22;4594;50.994;7.126;2023-06-10T07:50:41;40.90;32.20
9118;DHT22;4594;50.994;7.126;2023-06-10T07:53:07;41.00;32.00
9118;DHT22;4594;50.994;7.126;2023-06-10T07:55:33;41.20;32.00
9118;DHT22;4594;50.994;7.126;2023-06-10T07:57:58;41.50;32.10
9118;DHT22;4594;50.994;7.126;2023-06-10T08:00:24;41.60;31.80
9118;DHT22;4594;50.994;7.126;2023-06-10T08:02:50;41.70;31.80
9118;DHT22;4594;50.994;7.126;2023-06-10T08:05:16;41.90;31.60
9118;DHT22;4594;50.994;7.126;2023-06-10T08:07:42;42.00;31.50
9118;DHT22;4594;50.994;7.126;2023-06-10T08:10:08;42.20;31.40
9118;DHT22;4594;50.994;7.126;2023-06-10T08:12:34;42.40;31.40
9118;DHT22;4594;50.994;7.126;2023-06-10T08:15:01;42.60;31.40
9118;DHT22;4594;50.994;7.126;2023-06-10T08:17:32;42.70;31.30
9118;DHT22;4594;50.994;7.126;2023-06-10T08:19:58;42.90;31.20
9118;DHT22;4594;50.994;7.126;2023-06-10T08:22:24;43.00;31.10
9118;DHT22;4594;50.994;7.126;2023-06-10T08:24:49;43.10;30.70
9118;DHT22;4594;50.994;7.126;2023-06-10T08:27:15;43.20;30.50
9118;DHT22;4594;50.994;7.126;2023-06-10T08:29:41;43.20;30.40
9118;DHT22;4594;50.994;7.126;2023-06-10T08:32:06;43.20;30.20
9118;DHT22;4594;50.994;7.126;2023-06-10T08:34:34;43.20;30.40
9118;DHT22;4594;50.994;7.126;2023-06-10T08:37:03;43.20;30.30
9118;DHT22;4594;50.994;7.126;2023-06-10T08:39:29;43.40;30.50
9118;DHT22;4594;50.994;7.126;2023-06-10T08:42:19;43.50;30.40
9118;DHT22;4594;50.994;7.126;2023-06-10T08:45:05;43.70;30.00
9118;DHT22;4594;50.994;7.126;2023-06-10T08:47:34;43.90;30.30
9118;DHT22;4594;50.994;7.126;2023-06-10T08:50:04;44.00;30.20
9118;DHT22;4594;50.994;7.126;2023-06-10T08:52:37;44.10;30.00
9118;DHT22;4594;50.994;7.126;2023-06-10T08:55:23;44.20;29.90
9118;DHT22;4594;50.994;7.126;2023-06-10T08:57:56;44.30;29.60
9118;DHT22;4594;50.994;7.126;2023-06-10T09:00:22;44.50;30.00
9118;DHT22;4594;50.994;7.126;2023-06-10T09:02:48;44.60;29.90
9118;DHT22;4594;50.994;7.126;2023-06-10T09:05:16;44.80;30.00
9118;DHT22;4594;50.994;7.126;2023-06-10T09:07:42;44.90;29.90
9118;DHT22;4594;50.994;7.126;2023-06-10T09:10:08;45.00;29.80
9118;DHT22;4594;50.994;7.126;2023-06-10T09:12:35;45.00;29.60
9118;DHT22;4594;50.994;7.126;2023-06-10T09:15:03;45.10;29.60
9118;DHT22;4594;50.994;7.126;2023-06-10T09:17:30;45.20;29.60
9118;DHT22;4594;50.994;7.126;2023-06-10T09:19:56;45.20;29.50
9118;DHT22;4594;50.994;7.126;2023-06-10T09:22:23;45.30;29.40
9118;DHT22;4594;50.994;7.126;2023-06-10T09:24:49;45.30;29.40
9118;DHT22;4594;50.994;7.126;2023-06-10T09:27:15;45.30;29.40
9118;DHT22;4594;50.994;7.126;2023-06-10T09:32:17;45.20;29.10
9118;DHT22;4594;50.994;7.126;2023-06-10T09:34:44;45.20;29.40
9118;DHT22;4594;50.994;7.126;2023-06-10T09:37:10;45.20;29.20
9118;DHT22;4594;50.994;7.126;2023-06-10T09:39:38;45.30;29.30
9118;DHT22;4594;50.994;7.126;2023-06-10T09:42:24;45.30;29.20
9118;DHT22;4594;50.994;7.126;2023-06-10T09:44:52;45.50;29.40
9118;DHT22;4594;50.994;7.126;2023-06-10T09:47:22;45.50;29.00
9118;DHT22;4594;50.994;7.126;2023-06-10T09:49:51;45.60;28.80
9118;DHT22;4594;50.994;7.126;2023-06-10T09:52:24;45.60;28.80
9118;DHT22;4594;50.994;7.126;2023-06-10T09:54:58;45.70;28.60
9118;DHT22;4594;50.994;7.126;2023-06-10T09:57:25;45.80;28.70
9118;DHT22;4594;50.994;7.126;2023-06-10T09:59:55;45.60;28.50
9118;DHT22;4594;50.994;7.126;2023-06-10T10:02:21;45.50;28.50
9118;DHT22;4594;50.994;7.126;2023-06-10T10:04:47;45.50;28.40
9118;DHT22;4594;50.994;7.126;2023-06-10T10:07:13;45.40;28.60
9118;DHT22;4594;50.994;7.126;2023-06-10T10:09:40;45.40;28.30
9118;DHT22;4594;50.994;7.126;2023-06-10T10:12:10;45.30;28.30
9118;DHT22;4594;50.994;7.126;2023-06-10T10:14:37;45.20;28.20
9118;DHT22;4594;50.994;7.126;2023-06-10T10:17:10;45.10;28.20
9118;DHT22;4594;50.994;7.126;2023-06-10T10:19:53;45.00;27.90
9118;DHT22;4594;50.994;7.126;2023-06-10T10:22:31;44.80;27.90
9118;DHT22;4594;50.994;7.126;2023-06-10T10:25:11;44.60;27.80
9118;DHT22;4594;50.994;7.126;2023-06-10T10:27:55;44.20;27.40
9118;DHT22;4594;50.994;7.126;2023-06-10T10:30:24;43.80;27.30
9118;DHT22;4594;50.994;7.126;2023-06-10T10:35:24;43.20;27.50
9118;DHT22;4594;50.994;7.126;2023-06-10T10:37:54;43.00;27.40
9118;DHT22;4594;50.994;7.126;2023-06-10T10:40:21;42.80;27.30
9118;DHT22;4594;50.994;7.126;2023-06-10T10:42:49;42.60;27.40
9118;DHT22;4594;50.994;7.126;2023-06-10T10:45:16;42.50;27.80
9118;DHT22;4594;50.994;7.126;2023-06-10T10:47:44;42.50;27.70
9118;DHT22;4594;50.994;7.126;2023-06-10T10:50:16;42.50;27.40
9118;DHT22;4594;50.994;7.126;2023-06-10T10:53:04;42.40;27.20
9118;DHT22;4594;50.994;7.126;2023-06-10T10:55:31;42.30;27.30
9118;DHT22;4594;50.994;7.126;2023-06-10T10:57:59;42.10;27.30
9118;DHT22;4594;50.994;7.126;2023-06-10T11:00:34;41.90;27.00
9118;DHT22;4594;50.994;7.126;2023-06-10T11:03:13;41.60;27.10
9118;DHT22;4594;50.994;7.126;2023-06-10T11:05:43;41.30;27.00
9118;DHT22;4594;50.994;7.126;2023-06-10T11:11:22;40.50;26.70
9118;DHT22;4594;50.994;7.126;2023-06-10T11:16:28;39.40;26.60
9118;DHT22;4594;50.994;7.126;2023-06-10T11:18:55;38.90;26.60
9118;DHT22;4594;50.994;7.126;2023-06-10T11:21:24;38.40;26.30
9118;DHT22;4594;50.994;7.126;2023-06-10T11:23:51;37.90;26.40
9118;DHT22;4594;50.994;7.126;2023-06-10T11:31:21;36.80;26.70
9118;DHT22;4594;50.994;7.126;2023-06-10T11:34:06;36.40;26.80
9118;DHT22;4594;50.994;7.126;2023-06-10T11:36:39;36.20;26.90
9118;DHT22;4594;50.994;7.126;2023-06-10T11:39:08;35.90;27.10
9118;DHT22;4594;50.994;7.126;2023-06-10T11:41:36;35.70;27.10
9118;DHT22;4594;50.994;7.126;2023-06-10T11:46:34;35.30;27.20
9118;DHT22;4594;50.994;7.126;2023-06-10T11:49:01;35.10;27.20
9118;DHT22;4594;50.994;7.126;2023-06-10T11:51:31;35.00;27.30
9118;DHT22;4594;50.994;7.126;2023-06-10T11:53:59;34.90;27.60
9118;DHT22;4594;50.994;7.126;2023-06-10T11:56:28;34.80;27.90
9118;DHT22;4594;50.994;7.126;2023-06-10T11:59:05;34.70;27.80
9118;DHT22;4594;50.994;7.126;2023-06-10T12:01:34;34.60;27.90
9118;DHT22;4594;50.994;7.126;2023-06-10T12:04:10;34.50;27.70
9118;DHT22;4594;50.994;7.126;2023-06-10T12:06:51;34.50;27.70
9118;DHT22;4594;50.994;7.126;2023-06-10T12:09:26;34.50;27.40
9118;DHT22;4594;50.994;7.126;2023-06-10T12:12:02;34.40;27.30
9118;DHT22;4594;50.994;7.126;2023-06-10T12:14:58;34.30;27.10
9118;DHT22;4594;50.994;7.126;2023-06-10T12:17:36;34.30;27.00
9118;DHT22;4594;50.994;7.126;2023-06-10T12:20:05;34.10;26.90
9118;DHT22;4594;50.994;7.126;2023-06-10T12:22:40;34.00;26.90
9118;DHT22;4594;50.994;7.126;2023-06-10T12:25:08;33.90;27.00
9118;DHT22;4594;50.994;7.126;2023-06-10T12:27:35;33.90;26.90
9118;DHT22;4594;50.994;7.126;2023-06-10T12:30:03;33.80;26.80
9118;DHT22;4594;50.994;7.126;2023-06-10T12:35:07;33.70;26.70
9118;DHT22;4594;50.994;7.126;2023-06-10T12:37:35;33.70;26.80
9118;DHT22;4594;50.994;7.126;2023-06-10T12:40:03;33.70;26.90
9118;DHT22;4594;50.994;7.126;2023-06-10T12:42:31;33.70;26.90
9118;DHT22;4594;50.994;7.126;2023-06-10T12:45:00;33.70;26.90
9118;DHT22;4594;50.994;7.126;2023-06-10T12:47:30;33.70;27.00
9118;DHT22;4594;50.994;7.126;2023-06-10T12:49:58;33.60;27.00
9118;DHT22;4594;50.994;7.126;2023-06-10T12:52:25;33.60;27.10
9118;DHT22;4594;50.994;7.126;2023-06-10T12:54:51;33.60;27.40
9118;DHT22;4594;50.994;7.126;2023-06-10T12:57:17;33.50;27.20
9118;DHT22;4594;50.994;7.126;2023-06-10T12:59:43;33.40;27.10
9118;DHT22;4594;50.994;7.126;2023-06-10T13:02:16;33.40;27.10
9118;DHT22;4594;50.994;7.126;2023-06-10T13:04:45;33.30;27.00
9118;DHT22;4594;50.994;7.126;2023-06-10T13:07:11;33.20;27.00
9118;DHT22;4594;50.994;7.126;2023-06-10T13:09:37;33.10;26.90
9118;DHT22;4594;50.994;7.126;2023-06-10T13:12:03;33.10;26.90
9118;DHT22;4594;50.994;7.126;2023-06-10T13:14:31;33.10;26.70
9118;DHT22;4594;50.994;7.126;2023-06-10T13:16:56;33.00;26.50
9118;DHT22;4594;50.994;7.126;2023-06-10T13:19:22;33.00;26.50
9118;DHT22;4594;50.994;7.126;2023-06-10T13:21:48;33.00;26.50
9118;DHT22;4594;50.994;7.126;2023-06-10T13:24:14;32.90;26.40
9118;DHT22;4594;50.994;7.126;2023-06-10T13:26:40;32.90;26.40
9118;DHT22;4594;50.994;7.126;2023-06-10T13:29:05;32.90;26.40
9118;DHT22;4594;50.994;7.126;2023-06-10T13:31:33;32.90;26.30
9118;DHT22;4594;50.994;7.126;2023-06-10T13:33:59;32.90;26.40
9118;DHT22;4594;50.994;7.126;2023-06-10T13:36:25;32.90;26.40
9118;DHT22;4594;50.994;7.126;2023-06-10T13:38:50;32.90;26.40
9118;DHT22;4594;50.994;7.126;2023-06-10T13:41:16;33.00;26.60
9118;DHT22;4594;50.994;7.126;2023-06-10T13:43:42;33.00;26.60
9118;DHT22;4594;50.994;7.126;2023-06-10T13:46:08;33.00;26.60
9118;DHT22;4594;50.994;7.126;2023-06-10T13:48:33;33.00;26.60
9118;DHT22;4594;50.994;7.126;2023-06-10T13:51:00;33.10;26.70
9118;DHT22;4594;50.994;7.126;2023-06-10T13:53:26;33.10;26.70
9118;DHT22;4594;50.994;7.126;2023-06-10T13:55:51;33.10;26.70
9118;DHT22;4594;50.994;7.126;2023-06-10T13:58:17;33.10;26.70
9118;DHT22;4594;50.994;7.126;2023-06-10T14:00:43;33.10;26.70
9118;DHT22;4594;50.994;7.126;2023-06-10T14:03:09;33.10;26.70
9118;DHT22;4594;50.994;7.126;2023-06-10T14:05:34;33.00;26.70
9118;DHT22;4594;50.994;7.126;2023-06-10T14:08:00;32.90;26.70
9118;DHT22;4594;50.994;7.126;2023-06-10T14:10:26;32.80;26.70
9118;DHT22;4594;50.994;7.126;2023-06-10T14:12:51;32.70;26.70
9118;DHT22;4594;50.994;7.126;2023-06-10T14:15:17;32.60;26.70
9118;DHT22;4594;50.994;7.126;2023-06-10T14:17:43;32.50;26.70
9118;DHT22;4594;50.994;7.126;2023-06-10T14:20:09;32.40;26.70
9118;DHT22;4594;50.994;7.126;2023-06-10T14:22:35;32.30;26.80
9118;DHT22;4594;50.994;7.126;2023-06-10T14:25:00;32.20;26.70
9118;DHT22;4594;50.994;7.126;2023-06-10T14:27:26;32.20;26.80
9118;DHT22;4594;50.994;7.126;2023-06-10T14:29:51;32.10;26.80
9118;DHT22;4594;50.994;7.126;2023-06-10T14:32:17;32.10;26.90
9118;DHT22;4594;50.994;7.126;2023-06-10T14:34:43;32.10;27.00
9118;DHT22;4594;50.994;7.126;2023-06-10T14:37:10;32.00;26.90
9118;DHT22;4594;50.994;7.126;2023-06-10T14:39:36;31.90;26.90
9118;DHT22;4594;50.994;7.126;2023-06-10T14:42:02;31.90;27.00
9118;DHT22;4594;50.994;7.126;2023-06-10T14:44:28;31.80;27.00
9118;DHT22;4594;50.994;7.126;2023-06-10T14:46:53;31.70;27.00
9118;DHT22;4594;50.994;7.126;2023-06-10T14:49:19;31.60;27.00
9118;DHT22;4594;50.994;7.126;2023-06-10T14:51:44;31.60;27.10
9118;DHT22;4594;50.994;7.126;2023-06-10T14:54:10;31.50;27.10
9118;DHT22;4594;50.994;7.126;2023-06-10T14:56:36;31.50;27.30
9118;DHT22;4594;50.994;7.126;2023-06-10T14:59:02;31.50;27.20
9118;DHT22;4594;50.994;7.126;2023-06-10T15:01:27;31.40;27.30
9118;DHT22;4594;50.994;7.126;2023-06-10T15:03:53;31.40;27.20
9118;DHT22;4594;50.994;7.126;2023-06-10T15:06:19;31.40;27.10
9118;DHT22;4594;50.994;7.126;2023-06-10T15:08:48;31.40;27.00
9118;DHT22;4594;50.994;7.126;2023-06-10T15:11:14;31.40;26.90
9118;DHT22;4594;50.994;7.126;2023-06-10T15:13:40;31.40;26.90
9118;DHT22;4594;50.994;7.126;2023-06-10T15:16:06;31.40;26.90
9118;DHT22;4594;50.994;7.126;2023-06-10T15:18:32;31.40;26.90
9118;DHT22;4594;50.994;7.126;2023-06-10T15:20:58;31.40;26.90
9118;DHT22;4594;50.994;7.126;2023-06-10T15:23:24;31.30;26.80
9118;DHT22;4594;50.994;7.126;2023-06-10T15:25:50;31.30;26.90
9118;DHT22;4594;50.994;7.126;2023-06-10T15:28:15;31.30;27.00
9118;DHT22;4594;50.994;7.126;2023-06-10T15:30:41;31.30;26.90
9118;DHT22;4594;50.994;7.126;2023-06-10T15:33:07;31.30;26.90
9118;DHT22;4594;50.994;7.126;2023-06-10T15:35:33;31.30;26.90
9118;DHT22;4594;50.994;7.126;2023-06-10T15:37:59;31.20;26.80
9118;DHT22;4594;50.994;7.126;2023-06-10T15:40:25;31.20;26.80
9118;DHT22;4594;50.994;7.126;2023-06-10T15:42:51;31.20;26.80
9118;DHT22;4594;50.994;7.126;2023-06-10T15:45:17;31.20;26.80
9118;DHT22;4594;50.994;7.126;2023-06-10T15:47:43;31.20;26.80
9118;DHT22;4594;50.994;7.126;2023-06-10T15:50:09;31.20;26.80
9118;DHT22;4594;50.994;7.126;2023-06-10T15:52:35;31.20;26.80
9118;DHT22;4594;50.994;7.126;2023-06-10T15:55:01;31.20;26.80
9118;DHT22;4594;50.994;7.126;2023-06-10T15:57:27;31.20;26.90
9118;DHT22;4594;50.994;7.126;2023-06-10T15:59:53;31.10;26.90
9118;DHT22;4594;50.994;7.126;2023-06-10T16:02:19;31.20;26.90
9118;DHT22;4594;50.994;7.126;2023-06-10T16:04:45;31.10;26.90
9118;DHT22;4594;50.994;7.126;2023-06-10T16:07:11;31.10;27.20
9118;DHT22;4594;50.994;7.126;2023-06-10T16:09:36;31.10;26.90
9118;DHT22;4594;50.994;7.126;2023-06-10T16:12:02;31.10;26.90
9118;DHT22;4594;50.994;7.126;2023-06-10T16:14:28;31.10;26.90
9118;DHT22;4594;50.994;7.126;2023-06-10T16:16:54;31.10;26.90
9118;DHT22;4594;50.994;7.126;2023-06-10T16:19:26;31.10;26.90
9118;DHT22;4594;50.994;7.126;2023-06-10T16:21:52;31.00;26.80
9118;DHT22;4594;50.994;7.126;2023-06-10T16:24:18;31.00;26.90
9118;DHT22;4594;50.994;7.126;2023-06-10T16:26:44;31.00;26.90
9118;DHT22;4594;50.994;7.126;2023-06-10T16:29:10;31.00;26.90